This is the latest recevied weather packets stored in our database for station/object W1CAT. If no packets are shown the sender has not sent any weather packets the latest 10 day(s).
| Time | Temp. | Humidity | Pressure | Rain* | Wind** | Luminosity | Snow |
|---|---|---|---|---|---|---|---|
| 1777574175 | 7.22° C | 79% | - | 6.1 mm | - | - | - |
| 1777573869 | 7.22° C | 81% | - | 7.11 mm | - | - | - |
| 1777573564 | 6.11° C | 82% | - | 3.05 mm | - | - | - |
| 1777573261 | 5.56° C | 84% | - | 0 mm | - | - | - |
| 1777572957 | 4.44° C | 84% | - | 0 mm | - | - | - |
| 1777572653 | 3.33° C | 87% | - | 0 mm | - | - | - |
| 1777572347 | 2.22° C | 91% | - | 0 mm | - | - | - |
| 1777572044 | 1.11° C | 93% | - | 0 mm | - | - | - |
| 1777571744 | 0.56° C | 93% | - | 0 mm | - | - | - |
| 1777571442 | 0.56° C | 93% | - | 0 mm | - | - | - |
| 1777571138 | 0.56° C | 91% | - | 0 mm | - | - | - |
| 1777570834 | 1.11° C | 89% | - | 0 mm | - | - | - |
| 1777570530 | 1.67° C | 86% | - | 0 mm | - | - | - |
| 1777570227 | 2.78° C | 84% | - | 0 mm | - | - | - |
| 1777569927 | 3.33° C | 84% | - | 0 mm | - | - | - |
| 1777569623 | 3.33° C | 82% | - | 1.78 mm | - | - | - |
| 1777569320 | 3.89° C | 79% | - | 1.78 mm | - | - | - |
| 1777569016 | 5.56° C | 74% | - | 0 mm | - | - | - |
| 1777568713 | 5.56° C | 70% | - | 0 mm | - | - | - |
| 1777568411 | 5.56° C | 69% | - | 0 mm | - | - | - |
| 1777568108 | 6.11° C | 70% | - | 0 mm | - | - | - |
| 1777567804 | 6.11° C | 70% | - | 0 mm | - | - | - |
| 1777567500 | 6.11° C | 70% | - | 0 mm | - | - | - |
| 1777567198 | 5.56° C | 71% | - | 0 mm | - | - | - |
| 1777566896 | 5.56° C | 70% | - | 0 mm | - | - | - |
* Rain latest hour (hover to see other rain measurements)
** Current wind speed in m/s (hover to see current wind gust speed)